Time;durP1;ratioP1;P1;durP2;ratioP2;P2;SDS_P1;SDS_P2;PMS_P1;PMS_P2;Temp;Humidity;BMP_temperature;BMP_pressure;BME280_temperature;BME280_humidity;BME280_pressure;Samples;Min_cycle;Max_cycle;Signal;HPM_P1;HPM_P2
2021/12/31 00:00:58;;;;;;;15.25;2.80;;;12.40;99.90;;;;;;5106045;28;20148;-80
2021/12/31 00:03:24;;;;;;;11.07;2.80;;;12.30;99.90;;;;;;5089387;28;20468;-80
2021/12/31 00:05:50;;;;;;;10.52;2.90;;;12.30;99.90;;;;;;5105965;28;20044;-81
2021/12/31 00:08:16;;;;;;;14.80;3.13;;;12.30;99.90;;;;;;5088878;28;20377;-80
2021/12/31 00:10:41;;;;;;;16.52;3.00;;;12.30;99.90;;;;;;5088808;28;20118;-81
2021/12/31 00:13:07;;;;;;;14.88;3.20;;;12.30;99.90;;;;;;5055755;28;20407;-79
2021/12/31 00:15:33;;;;;;;20.02;3.60;;;12.20;99.90;;;;;;5105949;28;20481;-80
2021/12/31 00:17:59;;;;;;;14.55;2.88;;;12.20;99.90;;;;;;5088808;28;20040;-79
2021/12/31 00:20:25;;;;;;;14.25;3.75;;;12.20;99.90;;;;;;5088769;28;20044;-80
2021/12/31 00:25:19;;;;;;;13.00;2.88;;;12.20;99.90;;;;;;5091571;28;20046;-80
2021/12/31 00:27:45;;;;;;;19.45;3.63;;;12.20;99.90;;;;;;5075576;28;20483;-80
2021/12/31 00:30:11;;;;;;;15.50;3.42;;;12.20;99.90;;;;;;5091663;28;20055;-80
2021/12/31 00:32:37;;;;;;;11.85;3.20;;;12.20;99.90;;;;;;5075082;28;20043;-81
2021/12/31 00:35:05;;;;;;;21.50;3.70;;;12.20;99.90;;;;;;5075152;28;20093;-80
2021/12/31 00:37:34;;;;;;;13.10;2.95;;;12.20;99.90;;;;;;5074675;28;20047;-79
2021/12/31 00:40:01;;;;;;;14.73;3.08;;;12.20;99.90;;;;;;5091590;28;20301;-80
2021/12/31 00:42:26;;;;;;;17.65;3.15;;;12.20;99.90;;;;;;5074988;28;20046;-80
2021/12/31 00:44:52;;;;;;;14.73;3.10;;;12.10;99.90;;;;;;5058230;28;20035;-80
2021/12/31 00:47:18;;;;;;;17.52;3.30;;;12.10;99.90;;;;;;5075011;28;20043;-80
2021/12/31 00:49:44;;;;;;;16.27;3.78;;;12.10;99.90;;;;;;5074653;28;20048;-80
2021/12/31 00:52:10;;;;;;;13.00;3.25;;;12.00;99.90;;;;;;5058197;28;20063;-80
2021/12/31 00:54:36;;;;;;;15.05;2.97;;;12.10;99.90;;;;;;5057012;28;20404;-79
2021/12/31 00:57:04;;;;;;;12.00;2.97;;;12.10;99.90;;;;;;5091881;28;20079;-80
2021/12/31 00:59:34;;;;;;;16.75;3.17;;;12.00;99.90;;;;;;5074642;28;20143;-80
2021/12/31 01:02:05;;;;;;;15.82;2.70;;;12.00;99.90;;;;;;5091368;28;20039;-80
2021/12/31 01:04:32;;;;;;;16.20;2.75;;;12.10;99.90;;;;;;5074159;28;20445;-80
2021/12/31 01:06:58;;;;;;;15.88;3.40;;;12.00;99.90;;;;;;5074782;28;20116;-80
2021/12/31 01:09:25;;;;;;;;;;;12.00;99.90;;;;;;5074805;28;20035;-80
2021/12/31 01:11:51;;;;;;;13.85;2.70;;;12.00;99.90;;;;;;5091308;28;19919;-80
2021/12/31 01:15:21;;;;;;;22.17;3.33;;;12.00;99.90;;;;;;5091257;28;20043;-80
2021/12/31 01:17:15;;;;;;;13.70;3.00;;;12.00;99.90;;;;;;5061379;28;20089;-79
2021/12/31 01:19:48;;;;;;;12.55;2.70;;;12.00;99.90;;;;;;5092160;28;20051;-80
2021/12/31 01:22:28;;;;;;;18.10;3.35;;;12.00;99.90;;;;;;5072230;28;20055;-79
2021/12/31 01:24:53;;;;;;;12.93;2.92;;;12.00;99.90;;;;;;5071160;28;20044;-79
2021/12/31 01:27:20;;;;;;;13.20;2.92;;;12.00;99.90;;;;;;5087765;28;20040;-80
2021/12/31 01:29:45;;;;;;;14.57;3.03;;;12.00;99.90;;;;;;5087783;28;20036;-80
2021/12/31 01:32:11;;;;;;;15.20;2.95;;;12.00;99.90;;;;;;5071142;28;20132;-80
2021/12/31 01:34:38;;;;;;;17.02;3.45;;;12.10;99.90;;;;;;5087687;28;20032;-80
2021/12/31 01:37:04;;;;;;;9.43;2.33;;;12.00;99.90;;;;;;5070842;28;20048;-80
2021/12/31 01:39:30;;;;;;;;;;;12.00;99.90;;;;;;5071213;28;20044;-80
2021/12/31 01:41:58;;;;;;;13.60;2.97;;;12.00;99.90;;;;;;5070853;28;19926;-80
2021/12/31 01:44:35;;;;;;;15.35;3.55;;;12.00;99.90;;;;;;5087863;28;20036;-80
2021/12/31 01:47:08;;;;;;;12.77;2.72;;;12.00;99.90;;;;;;5071377;28;20082;-79
2021/12/31 01:49:38;;;;;;;11.02;2.38;;;12.00;99.90;;;;;;5070666;28;20046;-79
2021/12/31 01:52:05;;;;;;;13.02;3.10;;;12.00;99.90;;;;;;5070937;28;20094;-80
2021/12/31 01:54:33;;;;;;;14.27;3.83;;;12.00;99.90;;;;;;5070805;28;20569;-80
2021/12/31 01:57:01;;;;;;;16.83;3.92;;;12.00;99.90;;;;;;5070747;28;20440;-80
2021/12/31 01:59:28;;;;;;;14.10;3.50;;;12.00;99.90;;;;;;5087371;28;20488;-80
2021/12/31 02:01:55;;;;;;;;;;;11.90;99.90;;;;;;5070930;28;20197;-80
2021/12/31 02:04:21;;;;;;;17.25;3.00;;;12.00;99.90;;;;;;5104708;28;20458;-80
2021/12/31 02:06:47;;;;;;;10.38;2.42;;;12.00;99.90;;;;;;5087581;28;20048;-80
2021/12/31 02:09:13;;;;;;;15.40;3.20;;;12.00;99.90;;;;;;5091960;28;20404;-80
2021/12/31 02:11:39;;;;;;;12.23;3.03;;;12.00;99.90;;;;;;5074433;28;20506;-80
2021/12/31 02:14:06;;;;;;;18.23;3.10;;;12.00;99.90;;;;;;5074130;28;20039;-80
2021/12/31 02:16:32;;;;;;;17.83;3.20;;;12.00;99.90;;;;;;5073750;28;20122;-80
2021/12/31 02:19:09;;;;;;;;;;;12.10;99.90;;;;;;5091564;28;20040;-80
2021/12/31 02:21:35;;;;;;;10.68;2.92;;;12.10;99.90;;;;;;5107207;28;19943;-80
2021/12/31 02:24:06;;;;;;;12.75;2.72;;;12.10;99.90;;;;;;5090849;28;20470;-80
2021/12/31 02:26:32;;;;;;;11.75;2.78;;;12.10;99.90;;;;;;5074475;28;20400;-80
2021/12/31 02:28:58;;;;;;;16.88;3.50;;;12.10;99.90;;;;;;5073517;28;20047;-80
2021/12/31 02:31:23;;;;;;;14.27;3.13;;;12.20;99.90;;;;;;5107841;28;20143;-80
2021/12/31 02:33:50;;;;;;;17.75;3.25;;;12.10;99.90;;;;;;5107531;28;20044;-80
2021/12/31 02:36:16;;;;;;;14.52;3.78;;;12.10;99.90;;;;;;5074247;28;20096;-80
2021/12/31 02:38:44;;;;;;;17.15;3.35;;;12.10;99.90;;;;;;5090372;28;20055;-79
2021/12/31 02:41:10;;;;;;;11.30;2.85;;;12.20;99.90;;;;;;5090863;28;20044;-79
2021/12/31 02:43:36;;;;;;;10.43;2.97;;;12.20;99.90;;;;;;5090424;28;20130;-79
2021/12/31 02:46:02;;;;;;;15.73;3.10;;;12.30;99.90;;;;;;5090698;28;20488;-79
2021/12/31 02:48:28;;;;;;;12.35;3.00;;;12.40;99.90;;;;;;5073611;28;20036;-79
2021/12/31 02:50:56;;;;;;;11.27;2.40;;;12.40;99.90;;;;;;5073807;28;20036;-79
2021/12/31 02:53:37;;;;;;;11.40;2.72;;;12.40;99.90;;;;;;5090056;28;20036;-79
2021/12/31 02:56:06;;;;;;;9.45;3.10;;;12.40;99.90;;;;;;5073368;28;20659;-79
2021/12/31 02:58:33;;;;;;;11.82;2.63;;;12.40;99.90;;;;;;5090138;28;20032;-79
2021/12/31 03:01:00;;;;;;;9.85;2.30;;;12.40;99.90;;;;;;5073338;28;20064;-79
2021/12/31 03:03:28;;;;;;;14.75;2.72;;;12.40;99.90;;;;;;5073325;28;20040;-78
2021/12/31 03:05:55;;;;;;;11.25;2.60;;;12.40;99.90;;;;;;5090452;28;20550;-79
2021/12/31 03:08:23;;;;;;;11.95;2.95;;;12.50;99.90;;;;;;5089733;28;20082;-79
2021/12/31 03:10:49;;;;;;;10.13;2.67;;;12.60;99.90;;;;;;5090037;28;20044;-79
2021/12/31 03:13:16;;;;;;;12.20;2.50;;;12.60;99.90;;;;;;5073539;28;20492;-79
2021/12/31 03:15:42;;;;;;;11.70;2.45;;;12.70;99.90;;;;;;5072828;28;20047;-79
2021/12/31 03:18:10;;;;;;;9.52;2.20;;;12.60;99.90;;;;;;5072644;28;20079;-79
2021/12/31 03:20:38;;;;;;;10.45;2.53;;;12.60;99.90;;;;;;5089784;28;20377;-78
2021/12/31 03:23:04;;;;;;;10.10;2.72;;;12.60;99.90;;;;;;5073078;28;20139;-79
2021/12/31 03:25:31;;;;;;;9.02;2.35;;;12.60;99.90;;;;;;5089533;28;20036;-79
2021/12/31 03:27:56;;;;;;;6.38;2.70;;;12.50;99.90;;;;;;5089738;28;20039;-79
2021/12/31 03:30:22;;;;;;;9.23;2.63;;;12.50;99.90;;;;;;5072703;28;20039;-79
2021/12/31 03:32:48;;;;;;;10.15;2.45;;;12.60;99.90;;;;;;5072668;28;20075;-79
2021/12/31 03:35:14;;;;;;;12.07;3.17;;;12.60;99.90;;;;;;5072796;28;20074;-79
2021/12/31 03:37:40;;;;;;;8.88;2.63;;;12.70;99.90;;;;;;5072861;28;20126;-79
2021/12/31 03:40:06;;;;;;;9.90;2.50;;;12.60;99.90;;;;;;5072675;28;20123;-79
2021/12/31 03:42:32;;;;;;;7.78;2.83;;;12.60;99.90;;;;;;5089590;28;20084;-79
2021/12/31 03:44:58;;;;;;;9.50;2.95;;;12.60;99.90;;;;;;5072394;28;20048;-79
2021/12/31 03:47:24;;;;;;;10.07;2.90;;;12.60;99.90;;;;;;5089124;28;20032;-78
2021/12/31 03:49:49;;;;;;;8.25;2.63;;;12.50;99.90;;;;;;5088894;28;20546;-79
2021/12/31 03:52:15;;;;;;;10.35;2.65;;;12.60;99.90;;;;;;5089388;28;20113;-79
2021/12/31 03:54:41;;;;;;;12.43;2.65;;;12.60;99.90;;;;;;5072447;28;20476;-79
2021/12/31 03:57:07;;;;;;;11.93;2.92;;;12.60;99.90;;;;;;5088763;28;20186;-79
2021/12/31 03:59:33;;;;;;;12.35;2.50;;;12.60;99.90;;;;;;5089128;28;20046;-79
2021/12/31 04:01:58;;;;;;;9.60;2.25;;;12.60;99.90;;;;;;5105950;28;20506;-79
2021/12/31 04:04:24;;;;;;;8.63;2.38;;;12.60;99.90;;;;;;5072321;28;20035;-78
2021/12/31 04:06:50;;;;;;;11.25;2.25;;;12.60;99.90;;;;;;5072223;28;20043;-79
2021/12/31 04:09:16;;;;;;;7.72;2.00;;;12.60;99.90;;;;;;5088981;28;20059;-79
2021/12/31 04:11:41;;;;;;;6.80;2.75;;;12.60;99.90;;;;;;5055341;28;20046;-79
2021/12/31 04:14:07;;;;;;;11.63;2.53;;;12.50;99.90;;;;;;5072133;28;20043;-79
2021/12/31 04:16:33;;;;;;;9.35;2.47;;;12.50;99.90;;;;;;5072073;28;20043;-79
2021/12/31 04:18:59;;;;;;;7.68;2.40;;;12.60;99.90;;;;;;5088974;28;20052;-79
2021/12/31 04:21:26;;;;;;;9.88;2.95;;;12.60;99.90;;;;;;5073951;28;20460;-79
2021/12/31 04:24:05;;;;;;;10.88;2.47;;;12.60;99.90;;;;;;5058470;28;20039;-79
2021/12/31 04:26:31;;;;;;;12.45;2.95;;;12.60;99.90;;;;;;5092295;28;20487;-79
2021/12/31 04:28:57;;;;;;;7.45;2.55;;;12.60;99.90;;;;;;5092129;28;20035;-79
2021/12/31 04:31:23;;;;;;;11.90;2.58;;;12.70;99.90;;;;;;5074668;28;20045;-80
2021/12/31 04:33:49;;;;;;;14.65;2.67;;;12.70;99.90;;;;;;5074618;28;20126;-79
2021/12/31 04:36:15;;;;;;;9.90;2.30;;;12.70;99.90;;;;;;5075353;28;20079;-79
2021/12/31 04:38:41;;;;;;;13.80;2.88;;;12.60;99.90;;;;;;5091883;28;20132;-79
2021/12/31 04:41:06;;;;;;;7.03;2.15;;;12.70;99.90;;;;;;5091989;28;20173;-79
2021/12/31 04:43:32;;;;;;;11.07;2.70;;;12.70;99.90;;;;;;5075064;28;20046;-79
2021/12/31 04:45:58;;;;;;;7.88;2.53;;;12.70;99.90;;;;;;5108752;28;20093;-80
2021/12/31 04:48:24;;;;;;;12.98;2.38;;;12.80;99.90;;;;;;5108969;28;20043;-80
2021/12/31 04:50:50;;;;;;;6.30;2.00;;;12.70;99.90;;;;;;5074560;28;20471;-80
2021/12/31 04:53:16;;;;;;;6.78;1.73;;;12.80;99.90;;;;;;5091985;28;20075;-80
2021/12/31 04:55:42;;;;;;;9.30;2.10;;;12.80;99.90;;;;;;5074842;28;20100;-81
2021/12/31 04:58:08;;;;;;;6.65;2.00;;;12.90;99.90;;;;;;5074727;28;20142;-80
2021/12/31 05:00:34;;;;;;;6.32;1.88;;;13.00;99.90;;;;;;5057928;28;20090;-79
2021/12/31 05:03:10;;;;;;;5.68;1.73;;;12.80;99.90;;;;;;5091815;28;20047;-79
2021/12/31 05:05:37;;;;;;;6.93;2.58;;;12.90;99.90;;;;;;5074831;28;20082;-79
2021/12/31 05:08:04;;;;;;;6.43;2.03;;;12.90;99.90;;;;;;5075106;28;20039;-79
2021/12/31 05:10:31;;;;;;;4.97;1.92;;;12.90;99.90;;;;;;5091718;28;20188;-79
2021/12/31 05:13:02;;;;;;;8.30;1.83;;;12.70;99.90;;;;;;5091312;28;20051;-79
2021/12/31 05:15:33;;;;;;;9.23;2.22;;;12.70;99.90;;;;;;5091485;28;20126;-79
2021/12/31 05:17:58;;;;;;;7.53;2.20;;;12.60;99.90;;;;;;5091197;28;20047;-79
2021/12/31 05:20:24;;;;;;;6.60;2.20;;;12.70;99.90;;;;;;5057951;28;20402;-78
2021/12/31 05:22:52;;;;;;;4.95;1.45;;;12.70;99.90;;;;;;5090721;28;20043;-78
2021/12/31 05:25:18;;;;;;;7.20;2.17;;;12.70;99.90;;;;;;5108036;28;20066;-79
2021/12/31 05:27:44;;;;;;;4.40;2.20;;;12.70;99.90;;;;;;5090916;28;20035;-79
2021/12/31 05:30:11;;;;;;;7.30;2.00;;;12.60;99.90;;;;;;5057947;28;20535;-79
2021/12/31 05:32:36;;;;;;;5.05;2.42;;;12.60;99.90;;;;;;5074542;28;20044;-79
2021/12/31 05:35:02;;;;;;;5.38;2.80;;;12.50;99.90;;;;;;5091438;28;20517;-79
2021/12/31 05:37:28;;;;;;;6.78;2.65;;;12.50;99.90;;;;;;5074910;28;20639;-79
2021/12/31 05:39:54;;;;;;;5.78;2.85;;;12.40;99.90;;;;;;5107208;28;20123;-79
2021/12/31 05:42:19;;;;;;;8.32;2.78;;;12.50;99.90;;;;;;5059023;28;20089;-79
2021/12/31 05:44:48;;;;;;;6.60;2.65;;;12.40;99.90;;;;;;5077851;28;20046;-79
2021/12/31 05:47:13;;;;;;;6.13;2.90;;;12.40;99.90;;;;;;5095674;28;20042;-79
2021/12/31 05:49:39;;;;;;;7.68;2.88;;;12.40;99.90;;;;;;5094876;28;20044;-79
2021/12/31 05:52:06;;;;;;;6.55;2.72;;;12.40;99.90;;;;;;5078101;28;20043;-79
2021/12/31 05:54:31;;;;;;;;;;;12.40;99.90;;;;;;5095100;28;20075;-79
2021/12/31 05:56:57;;;;;;;7.53;3.20;;;12.40;99.90;;;;;;5095011;28;20384;-78
2021/12/31 05:59:23;;;;;;;5.45;2.65;;;12.50;99.90;;;;;;5111487;28;20335;-79
2021/12/31 06:01:48;;;;;;;7.07;3.17;;;12.50;99.90;;;;;;5077106;28;20039;-78
2021/12/31 06:04:15;;;;;;;8.73;3.08;;;12.60;99.90;;;;;;5094983;28;20497;-79
2021/12/31 06:06:40;;;;;;;5.00;2.50;;;12.60;99.90;;;;;;5094598;28;20046;-79
2021/12/31 06:09:11;;;;;;;5.05;2.65;;;12.60;99.90;;;;;;5077806;28;20031;-79
2021/12/31 06:11:37;;;;;;;6.82;2.42;;;12.70;99.90;;;;;;5077481;28;20068;-80
2021/12/31 06:14:05;;;;;;;4.35;2.40;;;12.80;99.90;;;;;;5094088;28;20122;-79
2021/12/31 06:16:38;;;;;;;5.55;2.58;;;12.80;99.90;;;;;;5094794;28;20062;-78
2021/12/31 06:19:05;;;;;;;7.03;2.88;;;12.70;99.90;;;;;;5077475;28;20514;-79
2021/12/31 06:21:33;;;;;;;5.10;2.63;;;12.80;99.90;;;;;;5077162;28;20046;-79
2021/12/31 06:24:00;;;;;;;7.03;2.40;;;12.70;99.90;;;;;;5077388;28;20055;-79
2021/12/31 06:26:29;;;;;;;6.45;2.42;;;12.70;99.90;;;;;;5077666;28;20036;-78
2021/12/31 06:28:54;;;;;;;;;;;12.60;99.90;;;;;;5077586;28;20563;-79
2021/12/31 06:31:20;;;;;;;5.90;2.20;;;12.70;99.90;;;;;;5094076;28;20002;-79
2021/12/31 06:33:46;;;;;;;4.80;2.53;;;12.70;99.90;;;;;;5077093;28;20047;-79
2021/12/31 06:36:12;;;;;;;7.80;2.95;;;12.70;99.90;;;;;;5076887;28;20479;-79
2021/12/31 06:38:37;;;;;;;6.35;2.10;;;12.60;99.90;;;;;;5076894;28;20090;-79
2021/12/31 06:41:03;;;;;;;6.40;2.55;;;12.60;99.90;;;;;;5093556;28;20043;-79
2021/12/31 06:43:29;;;;;;;8.35;2.13;;;12.60;99.90;;;;;;5093941;28;20059;-78
2021/12/31 06:45:55;;;;;;;7.47;2.33;;;12.70;99.90;;;;;;5060023;28;20044;-79
2021/12/31 06:48:20;;;;;;;5.22;2.33;;;12.60;99.90;;;;;;5060350;28;20483;-80
2021/12/31 06:50:46;;;;;;;5.75;2.70;;;12.60;99.90;;;;;;5076517;28;20039;-80
2021/12/31 06:53:12;;;;;;;4.63;2.38;;;12.50;99.90;;;;;;5059540;28;20050;-79
2021/12/31 06:55:37;;;;;;;4.43;2.25;;;12.50;99.90;;;;;;5093358;28;20486;-79
2021/12/31 06:58:03;;;;;;;6.90;2.58;;;12.60;99.90;;;;;;5060418;28;20092;-80
2021/12/31 07:00:29;;;;;;;4.32;2.05;;;12.70;99.90;;;;;;5093234;28;20121;-80
2021/12/31 07:03:06;;;;;;;6.30;2.17;;;12.60;99.90;;;;;;5059334;28;20479;-80
2021/12/31 07:05:32;;;;;;;4.88;2.05;;;12.60;99.90;;;;;;5093935;28;20039;-79
2021/12/31 07:07:57;;;;;;;6.97;2.53;;;12.60;99.90;;;;;;5059995;28;20071;-80
2021/12/31 07:10:23;;;;;;;6.30;2.13;;;12.60;99.90;;;;;;5110339;28;20082;-79
2021/12/31 07:12:49;;;;;;;5.07;2.00;;;12.60;99.90;;;;;;5076230;28;20042;-80
2021/12/31 07:15:14;;;;;;;4.13;2.00;;;12.60;99.90;;;;;;5093312;28;20047;-80
2021/12/31 07:17:40;;;;;;;3.03;1.50;;;12.60;99.90;;;;;;5059382;28;20039;-80
2021/12/31 07:20:07;;;;;;;4.22;1.67;;;12.50;99.90;;;;;;5059195;28;20040;-80
2021/12/31 07:22:33;;;;;;;5.75;2.22;;;12.60;99.90;;;;;;5076328;28;20495;-79
2021/12/31 07:24:59;;;;;;;5.25;1.90;;;12.60;99.90;;;;;;5092729;28;20039;-80
2021/12/31 07:27:25;;;;;;;5.18;2.08;;;12.60;99.90;;;;;;5042197;28;20044;-80
2021/12/31 07:29:51;;;;;;;4.97;2.47;;;12.70;99.90;;;;;;5076081;28;20036;-79
2021/12/31 07:32:16;;;;;;;5.82;1.77;;;12.70;99.90;;;;;;5075899;28;20286;-81
2021/12/31 07:34:42;;;;;;;4.78;1.77;;;12.60;99.90;;;;;;5092747;28;20396;-80
2021/12/31 07:37:08;;;;;;;4.32;1.98;;;12.70;99.90;;;;;;5075804;28;20044;-80
2021/12/31 07:39:35;;;;;;;3.37;2.10;;;12.60;99.90;;;;;;5093917;28;20075;-80
2021/12/31 07:42:01;;;;;;;7.25;2.00;;;12.60;99.90;;;;;;5092427;28;20399;-80
2021/12/31 07:44:29;;;;;;;4.00;2.00;;;12.50;99.90;;;;;;5076592;28;20086;-80
2021/12/31 07:46:55;;;;;;;6.38;1.73;;;12.60;99.90;;;;;;5075409;28;20067;-80
2021/12/31 07:49:21;;;;;;;5.88;1.92;;;12.50;99.90;;;;;;5059596;28;20344;-80
2021/12/31 07:51:46;;;;;;;5.47;1.87;;;12.40;99.90;;;;;;5075619;28;20040;-80
2021/12/31 07:54:12;;;;;;;5.13;2.15;;;12.50;99.90;;;;;;5109452;28;20320;-79
2021/12/31 07:56:38;;;;;;;6.30;1.90;;;12.40;99.90;;;;;;5092790;28;20057;-80
2021/12/31 07:59:03;;;;;;;5.32;1.80;;;12.50;99.90;;;;;;5075600;28;20557;-79
2021/12/31 08:01:29;;;;;;;3.90;1.90;;;12.50;99.90;;;;;;5075349;28;20043;-80
2021/12/31 08:03:55;;;;;;;3.95;1.70;;;12.60;99.90;;;;;;5074710;28;20035;-81
2021/12/31 08:06:20;;;;;;;3.25;1.92;;;12.50;99.90;;;;;;5075214;28;20047;-80
2021/12/31 08:08:46;;;;;;;4.63;2.17;;;12.60;99.90;;;;;;5075542;28;20073;-80
2021/12/31 08:11:12;;;;;;;4.75;2.00;;;12.60;99.90;;;;;;5075257;28;20400;-80
2021/12/31 08:13:37;;;;;;;4.85;1.98;;;12.60;99.90;;;;;;5076201;28;20047;-79
2021/12/31 08:16:03;;;;;;;5.25;1.98;;;12.60;99.90;;;;;;5074758;28;20050;-79
2021/12/31 08:18:29;;;;;;;4.65;1.85;;;12.50;99.90;;;;;;5058907;28;20066;-79
2021/12/31 08:20:55;;;;;;;5.82;2.08;;;12.40;99.90;;;;;;5091494;28;20435;-80
2021/12/31 08:23:20;;;;;;;6.45;2.20;;;12.40;99.90;;;;;;5075261;28;20108;-80
2021/12/31 08:25:46;;;;;;;5.55;2.15;;;12.50;99.90;;;;;;5109250;28;20050;-80
2021/12/31 08:28:12;;;;;;;4.97;2.17;;;12.50;99.90;;;;;;5058346;28;20039;-79
2021/12/31 08:30:38;;;;;;;8.05;2.13;;;12.50;99.90;;;;;;5042134;28;20470;-80
2021/12/31 08:33:04;;;;;;;4.85;2.35;;;12.50;99.90;;;;;;5108409;28;20044;-80
2021/12/31 08:35:30;;;;;;;6.22;2.53;;;12.50;99.90;;;;;;5058398;28;20061;-80
2021/12/31 08:37:56;;;;;;;7.68;2.40;;;12.50;99.90;;;;;;5091459;28;20055;-80
2021/12/31 08:40:23;;;;;;;7.50;2.40;;;12.50;99.90;;;;;;5091993;28;20505;-79
2021/12/31 08:42:48;;;;;;;6.15;2.40;;;12.50;99.90;;;;;;5091539;28;20122;-80
2021/12/31 08:45:14;;;;;;;4.32;2.05;;;12.60;99.90;;;;;;5091521;28;20131;-80
2021/12/31 08:47:40;;;;;;;4.90;2.20;;;12.70;99.90;;;;;;5075059;28;20039;-79
2021/12/31 08:50:06;;;;;;;5.30;2.42;;;12.60;99.90;;;;;;5057508;28;20118;-80
2021/12/31 08:52:32;;;;;;;6.07;2.20;;;12.60;99.90;;;;;;5091892;28;20050;-81
2021/12/31 08:54:57;;;;;;;5.45;2.30;;;12.60;99.90;;;;;;5073981;28;20358;-80
2021/12/31 08:57:23;;;;;;;4.10;2.07;;;12.60;99.90;;;;;;5091889;28;20071;-80
2021/12/31 08:59:49;;;;;;;3.78;2.00;;;12.60;99.90;;;;;;5091064;28;20315;-80
2021/12/31 09:02:18;;;;;;;6.95;2.20;;;12.60;99.90;;;;;;5074149;28;20483;-79
2021/12/31 09:04:43;;;;;;;8.27;2.75;;;12.60;99.90;;;;;;5057949;28;20032;-79
2021/12/31 09:07:09;;;;;;;5.15;2.35;;;12.50;99.90;;;;;;5058078;28;20048;-79
2021/12/31 09:09:35;;;;;;;5.35;2.58;;;12.60;99.90;;;;;;5075138;28;20126;-80
2021/12/31 09:12:04;;;;;;;5.38;1.90;;;12.60;99.90;;;;;;5074045;28;20050;-79
2021/12/31 09:14:29;;;;;;;4.93;2.60;;;12.60;99.90;;;;;;5091695;28;20483;-80
2021/12/31 09:16:55;;;;;;;5.97;2.40;;;12.60;99.90;;;;;;5074076;28;20088;-80
2021/12/31 09:19:21;;;;;;;3.50;2.10;;;12.70;99.90;;;;;;5074869;28;20036;-79
2021/12/31 09:21:47;;;;;;;4.85;2.00;;;12.60;99.90;;;;;;5074251;28;20039;-80
2021/12/31 09:24:12;;;;;;;6.57;2.25;;;12.60;99.90;;;;;;5074626;28;20059;-79
2021/12/31 09:26:38;;;;;;;4.63;2.47;;;12.60;99.90;;;;;;5091739;28;20499;-80
2021/12/31 09:29:04;;;;;;;5.35;2.38;;;12.80;99.90;;;;;;5091300;28;20043;-80
2021/12/31 09:31:30;;;;;;;6.00;2.50;;;12.50;99.90;;;;;;5074977;28;20050;-80
2021/12/31 09:33:55;;;;;;;7.65;3.00;;;12.50;99.90;;;;;;5057051;28;20039;-80
2021/12/31 09:36:21;;;;;;;6.25;3.00;;;12.50;99.90;;;;;;5091772;28;20135;-80
2021/12/31 09:38:47;;;;;;;4.97;2.40;;;12.50;99.90;;;;;;5074977;28;20050;-80
2021/12/31 09:41:13;;;;;;;5.70;2.50;;;12.50;99.90;;;;;;5074837;28;20235;-80
2021/12/31 09:43:38;;;;;;;4.70;2.25;;;12.50;99.90;;;;;;5091112;28;20044;-80
2021/12/31 09:46:05;;;;;;;6.95;2.53;;;12.50;99.90;;;;;;5057667;28;20406;-80
2021/12/31 09:48:31;;;;;;;5.88;2.30;;;12.50;99.90;;;;;;5074460;28;20125;-80
2021/12/31 09:50:57;;;;;;;5.70;2.50;;;12.50;99.90;;;;;;5091050;28;20153;-80
2021/12/31 09:53:26;;;;;;;4.25;2.20;;;12.50;99.90;;;;;;5091503;28;20462;-80
2021/12/31 09:55:54;;;;;;;6.38;2.50;;;12.50;99.90;;;;;;5073628;28;20044;-80
2021/12/31 09:58:22;;;;;;;7.40;2.70;;;12.50;99.90;;;;;;5074354;28;20447;-79
2021/12/31 10:00:51;;;;;;;6.22;2.85;;;12.40;99.90;;;;;;5090757;28;20050;-79
2021/12/31 10:03:22;;;;;;;5.80;2.55;;;12.40;99.90;;;;;;5090580;28;20039;-81
2021/12/31 10:05:52;;;;;;;7.65;3.47;;;12.30;99.90;;;;;;5074278;28;20094;-81
2021/12/31 10:08:23;;;;;;;4.78;2.70;;;12.30;99.90;;;;;;5090929;28;20035;-81
2021/12/31 10:11:07;;;;;;;7.10;3.05;;;12.20;99.90;;;;;;5073827;28;20047;-80
2021/12/31 10:13:44;;;;;;;8.45;3.03;;;12.10;99.90;;;;;;5090944;28;20069;-80
2021/12/31 10:16:25;;;;;;;7.30;2.78;;;12.00;99.90;;;;;;5090374;28;20043;-80
2021/12/31 10:19:13;;;;;;;7.35;2.83;;;12.00;99.90;;;;;;5090728;28;20041;-79
2021/12/31 10:21:44;;;;;;;9.10;2.78;;;12.10;99.90;;;;;;5091124;28;20040;-80
2021/12/31 10:24:19;;;;;;;7.30;3.17;;;12.10;99.90;;;;;;5074002;28;20117;-79
2021/12/31 10:26:45;;;;;;;7.15;2.92;;;12.10;99.90;;;;;;5091518;28;20036;-80
2021/12/31 10:29:11;;;;;;;7.18;2.92;;;12.00;99.90;;;;;;5093259;28;20084;-79
2021/12/31 10:31:44;;;;;;;8.05;3.30;;;12.10;99.90;;;;;;5094758;28;20051;-80
2021/12/31 10:34:28;;;;;;;6.15;3.00;;;12.00;99.90;;;;;;5094810;28;20138;-80
2021/12/31 10:36:54;;;;;;;6.53;3.47;;;12.00;99.90;;;;;;5094359;28;20040;-79
2021/12/31 10:39:25;;;;;;;7.97;3.10;;;12.00;99.90;;;;;;5094856;28;20126;-79
2021/12/31 10:42:04;;;;;;;7.68;3.40;;;12.00;99.90;;;;;;5077537;28;20070;-79
2021/12/31 10:44:50;;;;;;;7.90;3.10;;;11.90;99.90;;;;;;5077541;28;20100;-80
2021/12/31 10:47:32;;;;;;;6.68;3.42;;;11.90;99.90;;;;;;5094622;28;20036;-79
2021/12/31 10:50:03;;;;;;;8.73;3.50;;;12.00;99.90;;;;;;5110880;28;20043;-79
2021/12/31 10:52:37;;;;;;;5.57;3.55;;;11.90;99.90;;;;;;5077711;28;20488;-80
2021/12/31 10:57:43;;;;;;;5.82;3.15;;;11.90;99.90;;;;;;5094339;28;20050;-79
2021/12/31 11:00:10;;;;;;;7.35;3.38;;;11.90;99.90;;;;;;5076972;28;20124;-79
2021/12/31 11:02:37;;;;;;;6.50;3.67;;;11.90;99.90;;;;;;5060675;28;20035;-79
2021/12/31 11:05:03;;;;;;;7.15;3.78;;;11.90;99.90;;;;;;5060282;28;20039;-79
2021/12/31 11:07:30;;;;;;;10.50;3.65;;;11.90;99.90;;;;;;5077253;28;20046;-79
2021/12/31 11:09:59;;;;;;;;;;;11.90;99.90;;;;;;5095036;28;20044;-80
2021/12/31 11:12:28;;;;;;;10.30;3.90;;;11.90;99.90;;;;;;5093953;28;20030;-79
2021/12/31 11:14:55;;;;;;;9.82;4.28;;;11.90;99.90;;;;;;5093626;28;20655;-79
2021/12/31 11:17:22;;;;;;;6.68;3.65;;;11.90;99.90;;;;;;5093593;28;20031;-79
2021/12/31 11:19:49;;;;;;;9.35;3.83;;;11.90;99.90;;;;;;5093701;28;20044;-80
2021/12/31 11:22:18;;;;;;;9.20;3.70;;;11.90;99.90;;;;;;5093194;28;20134;-79
2021/12/31 11:24:44;;;;;;;9.20;3.72;;;11.80;99.90;;;;;;5093763;28;20131;-79
2021/12/31 11:27:32;;;;;;;7.05;3.90;;;11.90;99.90;;;;;;5076163;28;20035;-80
2021/12/31 11:29:59;;;;;;;11.32;4.25;;;11.90;99.90;;;;;;5092873;28;20039;-79
2021/12/31 11:32:56;;;;;;;7.35;3.90;;;11.90;99.90;;;;;;5093870;28;20449;-79
2021/12/31 11:35:39;;;;;;;6.80;3.97;;;11.90;99.90;;;;;;5093755;28;20096;-80
2021/12/31 11:38:21;;;;;;;8.77;4.25;;;11.80;99.90;;;;;;5092993;28;20523;-79
2021/12/31 11:40:52;;;;;;;10.48;4.45;;;11.80;99.90;;;;;;5076344;28;20040;-79
2021/12/31 11:43:24;;;;;;;8.52;4.15;;;11.80;99.90;;;;;;5076216;28;20617;-79
2021/12/31 11:46:09;;;;;;;7.68;3.90;;;11.80;99.90;;;;;;5076863;28;20398;-80
2021/12/31 11:48:47;;;;;;;8.73;4.43;;;11.80;99.90;;;;;;5093903;28;20483;-80
2021/12/31 11:51:19;;;;;;;11.45;4.10;;;11.80;99.90;;;;;;5092856;28;20181;-79
2021/12/31 11:54:00;;;;;;;7.40;4.13;;;11.80;99.90;;;;;;5093221;28;20047;-79
2021/12/31 11:56:45;;;;;;;8.65;4.35;;;11.70;99.90;;;;;;5076304;28;20441;-79
2021/12/31 11:59:13;;;;;;;12.02;5.47;;;11.70;99.90;;;;;;5076380;28;20039;-79
2021/12/31 12:01:51;;;;;;;9.00;4.68;;;11.60;99.90;;;;;;5076232;28;20096;-79
2021/12/31 12:04:23;;;;;;;10.38;4.90;;;11.50;99.90;;;;;;5076356;28;20534;-79
2021/12/31 12:06:56;;;;;;;9.85;5.07;;;11.50;99.90;;;;;;5076774;28;20115;-79
2021/12/31 12:09:23;;;;;;;7.93;4.63;;;11.50;99.90;;;;;;5093317;28;20075;-80
2021/12/31 12:12:08;;;;;;;9.88;4.65;;;11.60;99.90;;;;;;5076190;28;20126;-79
2021/12/31 12:14:47;;;;;;;8.00;4.93;;;11.50;99.90;;;;;;5093015;28;20186;-78
2021/12/31 12:17:14;;;;;;;8.55;4.70;;;11.50;99.90;;;;;;5092563;28;20035;-78
2021/12/31 12:19:46;;;;;;;8.73;4.47;;;11.40;99.90;;;;;;5076279;28;20046;-78
2021/12/31 12:22:27;;;;;;;8.77;4.78;;;11.40;99.90;;;;;;5075763;28;20031;-78
2021/12/31 12:24:55;;;;;;;8.48;4.70;;;11.40;99.90;;;;;;5076966;28;20062;-79
2021/12/31 12:27:23;;;;;;;8.07;4.38;;;11.50;99.90;;;;;;5076653;28;20475;-79
2021/12/31 12:29:50;;;;;;;8.38;4.75;;;11.40;99.90;;;;;;5076585;28;20516;-79
2021/12/31 12:32:29;;;;;;;8.13;4.15;;;11.40;99.90;;;;;;5075584;28;20069;-78
2021/12/31 12:34:55;;;;;;;9.00;4.38;;;11.30;99.90;;;;;;5092734;28;20051;-78
2021/12/31 12:37:28;;;;;;;6.70;4.35;;;11.30;99.90;;;;;;5092407;28;20043;-78
2021/12/31 12:40:02;;;;;;;7.43;4.57;;;11.40;99.90;;;;;;5092861;28;20669;-79
2021/12/31 12:42:28;;;;;;;7.78;4.97;;;11.40;99.90;;;;;;5076293;28;20059;-78
2021/12/31 12:45:00;;;;;;;8.57;4.50;;;11.40;99.90;;;;;;5092418;28;20399;-78
2021/12/31 12:47:26;;;;;;;7.90;4.70;;;11.40;99.90;;;;;;5075654;28;20373;-78
2021/12/31 12:49:56;;;;;;;7.90;4.40;;;11.40;99.90;;;;;;5075362;28;20071;-79
2021/12/31 12:52:21;;;;;;;9.55;4.85;;;11.40;99.90;;;;;;5091313;28;20103;-79
2021/12/31 12:54:47;;;;;;;5.47;4.15;;;11.40;99.90;;;;;;5058581;28;20169;-79